createdAt,value
2022-10-05T00:01:01.230Z,8.85
2022-10-05T00:03:36.930Z,8.91
2022-10-05T00:06:06.171Z,8.98
2022-10-05T00:08:36.135Z,8.96
2022-10-05T00:11:03.953Z,8.76
2022-10-05T00:13:32.373Z,8.57
2022-10-05T00:16:09.826Z,8.62
2022-10-05T00:18:38.034Z,8.54
2022-10-05T00:21:17.897Z,8.54
2022-10-05T00:23:47.305Z,8.83
2022-10-05T00:26:19.848Z,8.77
2022-10-05T00:28:47.819Z,8.76
2022-10-05T00:31:18.945Z,8.89
2022-10-05T00:33:47.708Z,8.92
2022-10-05T00:36:16.108Z,8.95
2022-10-05T00:38:44.621Z,8.97
2022-10-05T00:41:22.526Z,9.06
2022-10-05T00:44:27.081Z,9.12
2022-10-05T00:47:00.605Z,9.21
2022-10-05T00:49:49.729Z,9.37
2022-10-05T00:52:25.750Z,9.40
2022-10-05T00:55:00.768Z,9.45
2022-10-05T00:57:41.828Z,9.51
2022-10-05T01:00:13.455Z,9.47
2022-10-05T01:02:53.238Z,9.42
2022-10-05T01:05:34.422Z,9.47
2022-10-05T01:08:12.176Z,9.43
2022-10-05T01:10:46.671Z,9.36
2022-10-05T01:13:25.042Z,9.35
2022-10-05T01:15:59.126Z,9.37
2022-10-05T01:18:38.757Z,9.37
2022-10-05T01:21:15.510Z,9.22
2022-10-05T01:24:27.227Z,9.38
2022-10-05T01:27:21.423Z,9.38
2022-10-05T01:29:57.813Z,9.30
2022-10-05T01:32:34.631Z,9.22
2022-10-05T01:35:12.124Z,9.44
2022-10-05T01:37:48.219Z,9.62
2022-10-05T01:40:26.800Z,9.67
2022-10-05T01:43:08.891Z,9.54
2022-10-05T01:45:49.353Z,9.48
2022-10-05T01:48:29.039Z,9.45
2022-10-05T01:51:07.185Z,9.53
2022-10-05T01:53:46.807Z,9.70
2022-10-05T01:56:23.605Z,9.75
2022-10-05T01:59:01.983Z,9.80
2022-10-05T02:01:36.900Z,9.97
2022-10-05T02:04:12.596Z,10.16
2022-10-05T02:06:50.044Z,10.16
2022-10-05T02:09:21.490Z,10.12
2022-10-05T02:11:54.128Z,10.17
2022-10-05T02:14:26.443Z,10.25
2022-10-05T02:17:00.346Z,10.18
2022-10-05T02:19:33.013Z,10.23
2022-10-05T02:22:06.295Z,10.11
2022-10-05T02:24:40.363Z,10.07
2022-10-05T02:27:11.876Z,9.91
2022-10-05T02:29:46.175Z,9.84
2022-10-05T02:32:20.057Z,9.91
2022-10-05T02:34:48.300Z,9.89
2022-10-05T02:37:29.788Z,9.98
2022-10-05T02:40:10.813Z,10.14
2022-10-05T02:42:49.354Z,10.16
2022-10-05T02:45:24.347Z,10.30
2022-10-05T02:48:04.218Z,10.32
2022-10-05T02:50:40.099Z,10.29
2022-10-05T02:53:20.608Z,10.18
2022-10-05T02:55:59.877Z,10.07
2022-10-05T02:58:32.884Z,10.14
2022-10-05T03:01:08.311Z,10.25
2022-10-05T03:03:42.462Z,10.19
2022-10-05T03:06:18.484Z,10.24
2022-10-05T03:08:52.793Z,10.12
2022-10-05T03:11:31.346Z,10.20
2022-10-05T03:14:09.609Z,10.13
2022-10-05T03:16:48.976Z,10.11
2022-10-05T03:19:32.416Z,10.15
2022-10-05T03:22:03.861Z,10.08
2022-10-05T03:24:48.329Z,9.98
2022-10-05T03:27:28.861Z,9.96
2022-10-05T03:30:01.141Z,9.88
2022-10-05T03:32:38.137Z,9.71
2022-10-05T03:35:13.168Z,9.78
2022-10-05T03:37:49.107Z,9.77
2022-10-05T03:40:27.709Z,9.91
2022-10-05T03:43:12.984Z,9.93
2022-10-05T03:45:49.272Z,9.80
2022-10-05T03:48:22.488Z,9.90
2022-10-05T03:51:08.305Z,9.84
2022-10-05T03:53:43.448Z,9.72
2022-10-05T03:56:16.456Z,9.67
2022-10-05T03:58:55.590Z,9.78
2022-10-05T04:01:31.995Z,9.80
2022-10-05T04:04:05.048Z,9.76
2022-10-05T04:06:40.457Z,9.83
2022-10-05T04:09:14.984Z,9.88
2022-10-05T04:11:50.243Z,9.67
2022-10-05T04:14:23.603Z,9.83
2022-10-05T04:16:57.287Z,9.85
2022-10-05T04:19:31.976Z,9.77
2022-10-05T04:22:08.770Z,9.77
2022-10-05T04:24:41.704Z,9.61
2022-10-05T04:27:16.224Z,9.62
2022-10-05T04:29:49.257Z,9.71
2022-10-05T04:32:31.546Z,9.70
2022-10-05T04:35:16.990Z,9.83
2022-10-05T04:37:52.748Z,9.71
2022-10-05T04:40:39.301Z,9.70
2022-10-05T04:43:15.303Z,9.73
2022-10-05T04:46:06.535Z,9.76
2022-10-05T04:48:56.436Z,9.76
2022-10-05T04:51:37.527Z,9.87
2022-10-05T04:54:18.254Z,9.91
2022-10-05T04:56:51.162Z,9.88
2022-10-05T04:59:50.370Z,9.81
2022-10-05T05:02:27.850Z,9.76
2022-10-05T05:05:09.814Z,9.80
2022-10-05T05:07:49.810Z,9.78
2022-10-05T05:10:53.410Z,9.81
2022-10-05T05:13:39.039Z,9.86
2022-10-05T05:16:12.657Z,9.78
2022-10-05T05:19:08.083Z,9.75
2022-10-05T05:21:48.695Z,9.80
2022-10-05T05:24:22.413Z,9.81
2022-10-05T05:27:07.173Z,9.91
2022-10-05T05:29:49.576Z,9.93
2022-10-05T05:32:25.077Z,9.96
2022-10-05T05:35:08.696Z,9.88
2022-10-05T05:37:44.260Z,9.87
2022-10-05T05:40:17.994Z,9.84
2022-10-05T05:42:58.740Z,9.76
2022-10-05T05:45:38.390Z,9.64
2022-10-05T05:48:16.637Z,9.66
2022-10-05T05:50:56.343Z,9.67
2022-10-05T05:53:29.354Z,9.86
2022-10-05T05:56:02.237Z,10.07
2022-10-05T05:58:36.645Z,10.05
2022-10-05T06:01:25.044Z,10.07
2022-10-05T06:04:02.886Z,10.15
2022-10-05T06:06:33.136Z,10.14
2022-10-05T06:09:05.496Z,10.20
2022-10-05T06:11:44.201Z,10.17
2022-10-05T06:14:18.943Z,10.25
2022-10-05T06:16:54.733Z,10.16
2022-10-05T06:19:24.943Z,10.25
2022-10-05T06:21:59.740Z,10.32
2022-10-05T06:24:36.201Z,10.42
2022-10-05T06:27:26.668Z,10.59
2022-10-05T06:30:06.567Z,10.74
2022-10-05T06:32:50.008Z,10.87
2022-10-05T06:35:27.820Z,10.99
2022-10-05T06:38:21.142Z,11.05
2022-10-05T06:41:00.864Z,11.05
2022-10-05T06:43:44.287Z,11.12
2022-10-05T06:46:24.770Z,11.26
2022-10-05T06:49:16.968Z,11.25
2022-10-05T06:52:21.088Z,11.35
2022-10-05T06:55:14.005Z,11.90
2022-10-05T06:57:54.807Z,12.14
2022-10-05T07:00:25.946Z,12.37
2022-10-05T07:03:03.582Z,12.41
2022-10-05T07:05:46.426Z,12.43
2022-10-05T07:08:21.374Z,12.67
2022-10-05T07:11:03.479Z,12.77
2022-10-05T07:13:48.773Z,12.87
2022-10-05T07:16:28.264Z,13.11
2022-10-05T07:19:12.243Z,13.22
2022-10-05T07:21:47.059Z,13.44
2022-10-05T07:24:29.211Z,13.45
2022-10-05T07:27:09.025Z,13.45
2022-10-05T07:29:46.664Z,13.65
2022-10-05T07:32:28.149Z,13.62
2022-10-05T07:35:05.248Z,13.45
2022-10-05T07:37:57.977Z,13.59
2022-10-05T07:40:39.237Z,13.49
2022-10-05T07:43:23.192Z,13.63
2022-10-05T07:45:57.604Z,14.11
2022-10-05T07:48:33.199Z,14.08
2022-10-05T07:51:10.277Z,14.15
2022-10-05T07:53:41.845Z,14.15
2022-10-05T07:56:16.556Z,14.21
2022-10-05T07:58:48.155Z,14.36
2022-10-05T08:01:22.610Z,14.49
2022-10-05T08:03:59.795Z,14.74
2022-10-05T08:06:41.596Z,15.00
2022-10-05T08:09:27.175Z,15.13
2022-10-05T08:12:03.962Z,15.25
2022-10-05T08:14:41.106Z,15.39
2022-10-05T08:17:19.177Z,15.47
2022-10-05T08:19:55.209Z,15.66
2022-10-05T08:22:30.207Z,15.69
2022-10-05T08:25:03.130Z,15.66
2022-10-05T08:27:39.949Z,15.84
2022-10-05T08:30:12.500Z,15.94
2022-10-05T08:32:46.516Z,16.11
2022-10-05T08:35:26.693Z,16.24
2022-10-05T08:37:57.049Z,16.40
2022-10-05T08:40:57.944Z,16.59
2022-10-05T08:43:54.833Z,16.63
2022-10-05T08:46:53.931Z,16.76
2022-10-05T08:49:55.405Z,16.99
2022-10-05T08:52:29.250Z,17.01
2022-10-05T08:55:31.196Z,17.19
2022-10-05T08:58:37.568Z,17.44
2022-10-05T09:01:17.770Z,17.68
2022-10-05T09:04:25.133Z,17.84
2022-10-05T09:07:09.982Z,17.87
2022-10-05T09:10:04.387Z,17.98
2022-10-05T09:12:50.692Z,18.17
2022-10-05T09:15:49.748Z,18.32
2022-10-05T09:18:50.609Z,18.42
2022-10-05T09:21:40.196Z,18.65
2022-10-05T09:24:23.786Z,18.61
2022-10-05T09:27:01.710Z,18.62
2022-10-05T09:30:11.893Z,18.48
2022-10-05T09:33:09.842Z,18.50
2022-10-05T09:36:12.843Z,18.70
2022-10-05T09:39:06.585Z,18.80
2022-10-05T09:42:08.805Z,18.69
2022-10-05T09:45:21.195Z,18.74
2022-10-05T09:48:25.962Z,18.85
2022-10-05T09:51:35.273Z,18.96
2022-10-05T09:54:47.431Z,19.05
2022-10-05T09:57:53.070Z,19.07
2022-10-05T10:00:36.865Z,19.10
2022-10-05T10:03:24.276Z,19.26
2022-10-05T10:06:21.300Z,19.28
2022-10-05T10:09:19.449Z,19.32
2022-10-05T10:12:14.921Z,19.40
2022-10-05T10:15:23.908Z,19.57
2022-10-05T10:18:26.426Z,19.68
2022-10-05T10:21:12.185Z,19.80
2022-10-05T10:24:05.022Z,19.72
2022-10-05T10:27:00.797Z,19.78
2022-10-05T10:29:45.918Z,19.99
2022-10-05T10:32:32.509Z,20.18
2022-10-05T10:35:15.189Z,20.16
2022-10-05T10:38:24.552Z,19.99
2022-10-05T10:41:09.702Z,20.13
2022-10-05T10:44:03.700Z,20.21
2022-10-05T10:46:40.418Z,20.30
2022-10-05T10:49:26.598Z,20.28
2022-10-05T10:52:23.963Z,20.47
2022-10-05T10:55:19.710Z,20.46
2022-10-05T10:58:05.390Z,20.42
2022-10-05T11:00:48.919Z,20.58
2022-10-05T11:03:58.349Z,20.84
2022-10-05T11:06:36.476Z,20.69
2022-10-05T11:09:30.943Z,20.85
2022-10-05T11:12:48.685Z,20.89
2022-10-05T11:15:35.613Z,20.92
2022-10-05T11:18:11.354Z,20.96
2022-10-05T11:21:13.070Z,20.89
2022-10-05T11:24:05.459Z,21.06
2022-10-05T11:26:47.786Z,21.10
2022-10-05T11:29:40.838Z,20.91
2022-10-05T11:32:32.079Z,21.25
2022-10-05T11:35:34.155Z,21.13
2022-10-05T11:38:17.962Z,21.22
2022-10-05T11:41:18.691Z,21.51
2022-10-05T11:44:16.912Z,21.53
2022-10-05T11:46:53.371Z,21.57
2022-10-05T11:49:34.046Z,21.88
2022-10-05T11:52:12.295Z,22.10
2022-10-05T11:55:10.816Z,21.81
2022-10-05T11:57:47.121Z,21.98
2022-10-05T12:00:19.404Z,22.06
2022-10-05T12:03:09.351Z,22.55
2022-10-05T12:05:50.882Z,22.71
2022-10-05T12:08:30.332Z,22.88
2022-10-05T12:11:08.104Z,22.81
2022-10-05T12:13:44.567Z,22.90
2022-10-05T12:16:20.591Z,22.82
2022-10-05T12:18:56.456Z,22.84
2022-10-05T12:21:37.955Z,22.71
2022-10-05T12:24:15.118Z,22.74
2022-10-05T12:26:48.631Z,22.40
2022-10-05T12:29:24.583Z,22.64
2022-10-05T12:31:59.849Z,22.52
2022-10-05T12:34:43.335Z,22.36
2022-10-05T12:37:16.037Z,22.46
2022-10-05T12:39:52.157Z,22.57
2022-10-05T12:42:29.909Z,22.63
2022-10-05T12:45:18.349Z,22.51
2022-10-05T12:48:02.985Z,22.51
2022-10-05T12:50:35.575Z,22.38
2022-10-05T12:53:17.677Z,22.58
2022-10-05T12:55:54.418Z,22.79
2022-10-05T12:58:33.502Z,22.83
2022-10-05T13:01:10.130Z,22.79
2022-10-05T13:03:44.654Z,22.55
2022-10-05T13:06:20.875Z,22.39
2022-10-05T13:08:56.946Z,22.55
2022-10-05T13:11:31.968Z,22.53
2022-10-05T13:14:09.161Z,22.82
2022-10-05T13:16:44.880Z,22.98
2022-10-05T13:19:28.853Z,23.01
2022-10-05T13:22:19.745Z,22.96
2022-10-05T13:24:59.413Z,23.14
2022-10-05T13:27:30.574Z,23.08
2022-10-05T13:30:03.453Z,23.19
2022-10-05T13:32:36.739Z,23.16
2022-10-05T13:35:21.069Z,23.16
2022-10-05T13:38:01.653Z,23.00
2022-10-05T13:40:35.898Z,22.86
2022-10-05T13:43:11.444Z,22.87
2022-10-05T13:45:47.029Z,23.00
2022-10-05T13:48:29.301Z,23.02
2022-10-05T13:51:08.298Z,23.02
2022-10-05T13:53:46.001Z,23.33
2022-10-05T13:56:21.765Z,23.40
2022-10-05T13:58:55.811Z,23.45
2022-10-05T14:01:36.439Z,23.46
2022-10-05T14:04:07.236Z,23.41
2022-10-05T14:06:38.504Z,23.23
2022-10-05T14:09:13.625Z,23.37
2022-10-05T14:11:50.194Z,23.31
2022-10-05T14:14:25.841Z,23.35
2022-10-05T14:16:56.028Z,23.38
2022-10-05T14:19:27.910Z,23.20
2022-10-05T14:22:02.206Z,23.44
2022-10-05T14:24:47.646Z,23.38
2022-10-05T14:27:22.159Z,23.19
2022-10-05T14:29:57.717Z,23.26
2022-10-05T14:32:28.058Z,23.00
2022-10-05T14:35:01.206Z,23.08
2022-10-05T14:37:44.237Z,23.16
2022-10-05T14:40:27.989Z,22.97
2022-10-05T14:42:56.407Z,23.07
2022-10-05T14:45:26.107Z,22.90
2022-10-05T14:48:00.151Z,22.98
2022-10-05T14:50:29.836Z,22.98
2022-10-05T14:53:14.089Z,22.88
2022-10-05T14:55:56.705Z,22.81
2022-10-05T14:58:53.486Z,22.66
2022-10-05T15:01:27.782Z,22.63
2022-10-05T15:04:07.536Z,22.43
2022-10-05T15:06:39.987Z,22.36
2022-10-05T15:09:34.748Z,22.14
2022-10-05T15:12:04.125Z,22.05
2022-10-05T15:14:34.950Z,22.04
2022-10-05T15:17:05.180Z,22.03
2022-10-05T15:19:48.941Z,22.08
2022-10-05T15:22:29.594Z,22.09
2022-10-05T15:25:05.707Z,22.15
2022-10-05T15:27:46.052Z,22.16
2022-10-05T15:30:18.095Z,22.05
2022-10-05T15:33:01.097Z,22.14
2022-10-05T15:36:00.443Z,22.15
2022-10-05T15:38:32.996Z,22.08
2022-10-05T15:41:11.096Z,21.80
2022-10-05T15:43:48.535Z,21.73
2022-10-05T15:46:19.373Z,21.74
2022-10-05T15:48:55.303Z,21.78
2022-10-05T15:51:37.102Z,21.92
2022-10-05T15:54:30.991Z,21.74
2022-10-05T15:57:04.812Z,21.69
2022-10-05T15:59:42.583Z,21.54
2022-10-05T16:02:20.623Z,21.44
2022-10-05T16:05:02.403Z,21.27
2022-10-05T16:07:58.733Z,20.95
2022-10-05T16:10:27.902Z,20.75
2022-10-05T16:13:10.506Z,20.60
2022-10-05T16:15:43.042Z,20.43
2022-10-05T16:18:43.039Z,20.34
2022-10-05T16:21:24.410Z,20.16
2022-10-05T16:24:10.629Z,19.95
2022-10-05T16:26:56.929Z,19.62
2022-10-05T16:29:38.883Z,19.25
2022-10-05T16:32:11.189Z,18.87
2022-10-05T16:35:01.750Z,18.48
2022-10-05T16:37:39.525Z,18.18
2022-10-05T16:40:16.615Z,17.81
2022-10-05T16:42:56.183Z,17.54
2022-10-05T16:45:47.764Z,17.31
2022-10-05T16:48:25.254Z,17.23
2022-10-05T16:51:13.890Z,17.09
2022-10-05T16:53:45.314Z,16.93
2022-10-05T16:56:17.574Z,16.80
2022-10-05T16:59:00.996Z,16.56
2022-10-05T17:01:48.558Z,16.33
2022-10-05T17:04:27.935Z,16.12
2022-10-05T17:07:22.544Z,15.96
2022-10-05T17:10:16.708Z,15.81
2022-10-05T17:12:53.984Z,15.70
2022-10-05T17:15:33.584Z,15.59
2022-10-05T17:18:29.315Z,15.56
2022-10-05T17:21:05.456Z,15.58
2022-10-05T17:23:45.054Z,15.58
2022-10-05T17:26:40.985Z,15.64
2022-10-05T17:29:18.220Z,15.65
2022-10-05T17:32:36.133Z,15.59
2022-10-05T17:35:22.095Z,15.43
2022-10-05T17:38:18.091Z,15.32
2022-10-05T17:41:15.715Z,15.08
2022-10-05T17:44:32.669Z,14.81
2022-10-05T17:47:03.984Z,14.65
2022-10-05T17:50:09.744Z,14.67
2022-10-05T17:52:58.775Z,14.84
2022-10-05T17:55:45.248Z,14.87
2022-10-05T17:58:59.152Z,14.73
2022-10-05T18:01:30.368Z,14.47
2022-10-05T18:04:33.584Z,14.25
2022-10-05T18:07:04.528Z,14.04
2022-10-05T18:09:50.544Z,13.81
2022-10-05T18:12:40.442Z,13.73
2022-10-05T18:15:47.120Z,13.64
2022-10-05T18:18:48.288Z,13.55
2022-10-05T18:21:35.817Z,13.86
2022-10-05T18:24:46.006Z,14.37
2022-10-05T18:27:34.266Z,14.69
2022-10-05T18:30:18.489Z,14.98
2022-10-05T18:33:20.276Z,15.24
2022-10-05T18:36:01.528Z,15.26
2022-10-05T18:38:43.725Z,14.98
2022-10-05T18:41:22.605Z,14.53
2022-10-05T18:44:00.491Z,14.19
2022-10-05T18:46:39.574Z,13.92
2022-10-05T18:49:20.035Z,13.68
2022-10-05T18:51:53.512Z,13.62
2022-10-05T18:54:36.492Z,13.54
2022-10-05T18:57:39.730Z,13.41
2022-10-05T19:00:14.847Z,13.31
2022-10-05T19:02:48.373Z,13.21
2022-10-05T19:05:47.934Z,13.03
2022-10-05T19:08:28.582Z,12.93
2022-10-05T19:11:09.275Z,12.80
2022-10-05T19:13:47.789Z,12.57
2022-10-05T19:16:28.183Z,12.52
2022-10-05T19:19:06.523Z,12.54
2022-10-05T19:21:45.377Z,12.64
2022-10-05T19:24:26.676Z,12.70
2022-10-05T19:27:07.261Z,12.68
2022-10-05T19:29:50.112Z,12.67
2022-10-05T19:32:26.964Z,12.59
2022-10-05T19:35:10.037Z,12.56
2022-10-05T19:37:47.569Z,12.48
2022-10-05T19:40:21.356Z,12.47
2022-10-05T19:43:02.413Z,12.48
2022-10-05T19:45:32.919Z,12.47
2022-10-05T19:48:15.948Z,12.45
2022-10-05T19:50:54.744Z,12.40
2022-10-05T19:53:27.307Z,12.38
2022-10-05T19:55:55.519Z,12.43
2022-10-05T19:58:26.820Z,12.39
2022-10-05T20:01:00.511Z,12.50
2022-10-05T20:03:32.642Z,12.51
2022-10-05T20:06:02.335Z,12.58
2022-10-05T20:08:39.474Z,12.74
2022-10-05T20:11:15.573Z,12.86
2022-10-05T20:13:47.284Z,12.94
2022-10-05T20:16:46.946Z,13.01
2022-10-05T20:19:47.561Z,13.10
2022-10-05T20:22:33.087Z,13.20
2022-10-05T20:25:03.199Z,13.24
2022-10-05T20:27:45.141Z,13.24
2022-10-05T20:30:16.965Z,13.16
2022-10-05T20:32:47.986Z,13.23
2022-10-05T20:35:16.799Z,13.33
2022-10-05T20:37:47.167Z,13.36
2022-10-05T20:40:15.504Z,13.32
2022-10-05T20:42:43.765Z,13.35
2022-10-05T20:45:17.131Z,13.40
2022-10-05T20:47:47.825Z,13.41
2022-10-05T20:50:16.171Z,13.46
2022-10-05T20:52:44.237Z,13.45
2022-10-05T20:55:13.017Z,13.52
2022-10-05T20:57:42.567Z,13.57
2022-10-05T21:00:11.913Z,13.56
2022-10-05T21:02:41.123Z,13.60
2022-10-05T21:05:10.438Z,13.52
2022-10-05T21:07:38.455Z,13.46
2022-10-05T21:10:07.418Z,13.44
2022-10-05T21:12:35.435Z,13.45
2022-10-05T21:15:04.643Z,13.44
2022-10-05T21:17:35.161Z,13.40
2022-10-05T21:20:05.091Z,13.36
2022-10-05T21:22:35.592Z,13.26
2022-10-05T21:25:03.585Z,13.26
2022-10-05T21:27:33.962Z,13.21
2022-10-05T21:30:01.772Z,13.15
2022-10-05T21:32:29.549Z,13.12
2022-10-05T21:35:00.081Z,13.05
2022-10-05T21:37:29.222Z,13.08
2022-10-05T21:39:57.300Z,13.06
2022-10-05T21:42:27.289Z,13.07
2022-10-05T21:44:55.041Z,13.03
2022-10-05T21:47:26.702Z,13.03
2022-10-05T21:49:55.104Z,13.01
2022-10-05T21:52:23.314Z,13.02
2022-10-05T21:54:52.667Z,13.04
2022-10-05T21:57:20.412Z,13.02
2022-10-05T21:59:48.371Z,13.00
2022-10-05T22:02:16.081Z,13.01
2022-10-05T22:04:43.883Z,12.96
2022-10-05T22:07:19.235Z,12.97
2022-10-05T22:09:48.393Z,12.98
2022-10-05T22:12:19.717Z,12.98
2022-10-05T22:14:47.526Z,12.94
2022-10-05T22:17:24.363Z,12.96
2022-10-05T22:19:52.414Z,12.79
2022-10-05T22:22:20.143Z,12.73
2022-10-05T22:24:48.015Z,12.61
2022-10-05T22:27:17.737Z,12.55
2022-10-05T22:29:45.654Z,12.54
2022-10-05T22:32:13.502Z,12.54
2022-10-05T22:34:41.252Z,12.57
2022-10-05T22:37:12.960Z,12.56
2022-10-05T22:39:41.288Z,12.52
2022-10-05T22:42:09.818Z,12.51
2022-10-05T22:44:39.000Z,12.47
2022-10-05T22:47:06.808Z,12.33
2022-10-05T22:49:34.710Z,12.45
2022-10-05T22:52:02.436Z,12.54
2022-10-05T22:54:32.528Z,12.60
2022-10-05T22:57:03.100Z,12.68
2022-10-05T22:59:31.099Z,12.78
2022-10-05T23:02:00.303Z,12.96
2022-10-05T23:04:28.180Z,13.41
2022-10-05T23:06:55.970Z,13.73
2022-10-05T23:09:23.702Z,13.87
2022-10-05T23:11:54.154Z,14.05
2022-10-05T23:14:22.836Z,14.09
2022-10-05T23:16:50.866Z,14.15
2022-10-05T23:19:20.045Z,14.13
2022-10-05T23:21:47.787Z,14.16
2022-10-05T23:24:15.656Z,14.21
2022-10-05T23:26:43.493Z,14.13
2022-10-05T23:29:11.540Z,14.07
2022-10-05T23:31:39.318Z,14.05
2022-10-05T23:34:07.055Z,14.07
2022-10-05T23:36:36.188Z,14.03
2022-10-05T23:39:03.998Z,14.00
2022-10-05T23:41:32.137Z,14.02
2022-10-05T23:43:59.835Z,14.06
2022-10-05T23:46:27.746Z,13.98
2022-10-05T23:48:55.548Z,13.86
2022-10-05T23:51:23.413Z,13.77
2022-10-05T23:53:52.480Z,13.69
2022-10-05T23:56:20.175Z,13.65
2022-10-05T23:58:48.056Z,13.53
